Time;durP1;ratioP1;P1;durP2;ratioP2;P2;SDS_P1;SDS_P2;PMS_P1;PMS_P2;Temp;Humidity;BMP_temperature;BMP_pressure;BME280_temperature;BME280_humidity;BME280_pressure;Samples;Min_cycle;Max_cycle;Signal;HPM_P1;HPM_P2
2021/12/02 00:01:26;;;;;;;0.73;0.73;;;5.30;99.90;;;;;;5013241;28;20170;-74
2021/12/02 00:03:54;;;;;;;1.80;1.70;;;5.30;99.90;;;;;;5013061;28;20272;-74
2021/12/02 00:06:20;;;;;;;0.50;0.50;;;5.40;99.90;;;;;;5012769;28;20189;-73
2021/12/02 00:08:50;;;;;;;0.10;0.10;;;5.30;99.90;;;;;;5005707;28;20196;-74
2021/12/02 00:11:17;;;;;;;0.10;0.10;;;5.30;99.90;;;;;;5032455;28;20213;-74
2021/12/02 00:13:55;;;;;;;1.60;1.50;;;5.30;99.90;;;;;;5032647;28;20259;-74
2021/12/02 00:16:37;;;;;;;0.10;0.10;;;5.30;99.90;;;;;;5032272;28;20204;-74
2021/12/02 00:21:51;;;;;;;1.00;1.00;;;5.30;99.90;;;;;;5032849;28;20224;-73
2021/12/02 00:24:18;;;;;;;1.30;1.23;;;5.30;99.90;;;;;;5032602;28;20224;-74
2021/12/02 00:26:45;;;;;;;0.97;0.93;;;5.30;99.90;;;;;;5032536;28;20185;-75
2021/12/02 00:29:11;;;;;;;1.00;0.83;;;5.20;99.90;;;;;;5032419;28;20209;-75
2021/12/02 00:31:38;;;;;;;0.50;0.50;;;5.20;99.90;;;;;;5032569;28;20224;-74
2021/12/02 00:34:07;;;;;;;2.93;2.63;;;5.20;99.90;;;;;;5027894;28;20269;-74
2021/12/02 00:36:34;;;;;;;0.67;0.67;;;5.20;99.90;;;;;;5024249;28;20204;-74
2021/12/02 00:39:06;;;;;;;1.13;1.13;;;5.20;99.90;;;;;;5025851;28;20178;-75
2021/12/02 00:41:32;;;;;;;2.53;2.43;;;5.20;99.90;;;;;;5012738;28;20237;-75
2021/12/02 00:43:59;;;;;;;0.67;0.67;;;5.20;99.90;;;;;;5025934;28;20707;-74
2021/12/02 00:46:27;;;;;;;1.00;1.00;;;5.20;99.90;;;;;;5027622;28;20181;-75
2021/12/02 00:48:53;;;;;;;2.33;2.17;;;5.20;99.90;;;;;;5027089;28;20182;-75
2021/12/02 00:51:20;;;;;;;1.60;1.50;;;5.20;99.90;;;;;;5012506;28;20556;-74
2021/12/02 00:53:52;;;;;;;3.53;3.33;;;5.20;99.90;;;;;;5031891;28;20339;-75
2021/12/02 00:56:23;;;;;;;1.83;1.67;;;5.20;99.90;;;;;;5012369;28;20251;-74
2021/12/02 00:58:49;;;;;;;1.20;1.10;;;5.20;99.90;;;;;;5021323;28;20170;-74
2021/12/02 01:01:16;;;;;;;2.30;2.20;;;5.20;99.90;;;;;;5019109;28;20639;-74
2021/12/02 01:03:42;;;;;;;0.77;0.77;;;5.20;99.90;;;;;;5031924;28;20280;-74
2021/12/02 01:06:08;;;;;;;3.70;3.27;;;5.20;99.90;;;;;;5016420;28;20174;-74
2021/12/02 01:08:36;;;;;;;1.60;1.50;;;5.20;99.90;;;;;;5012138;28;20280;-74
2021/12/02 01:11:05;;;;;;;2.20;1.60;;;5.20;99.90;;;;;;5014953;28;20186;-75
2021/12/02 01:13:31;;;;;;;0.90;0.90;;;5.10;99.90;;;;;;5013845;28;20292;-74
2021/12/02 01:15:56;;;;;;;0.73;0.73;;;5.20;99.90;;;;;;5031461;28;20300;-75
2021/12/02 01:18:23;;;;;;;0.80;0.73;;;5.20;99.90;;;;;;5031661;28;20277;-74
2021/12/02 01:20:51;;;;;;;2.40;2.20;;;5.20;99.90;;;;;;5028350;28;20257;-74
2021/12/02 01:23:18;;;;;;;1.60;1.50;;;5.20;99.90;;;;;;5004006;28;20194;-75
2021/12/02 01:25:53;;;;;;;0.90;0.90;;;5.20;99.90;;;;;;5013872;28;20185;-74
2021/12/02 01:28:22;;;;;;;2.00;1.30;;;5.20;99.90;;;;;;5013937;28;20654;-75
2021/12/02 01:30:51;;;;;;;2.20;1.67;;;5.20;99.90;;;;;;5031480;28;20206;-75
2021/12/02 01:33:20;;;;;;;1.87;1.73;;;5.20;99.90;;;;;;5031358;28;20622;-74
2021/12/02 01:35:54;;;;;;;0.70;0.70;;;5.20;99.90;;;;;;5030988;28;20554;-73
2021/12/02 01:38:22;;;;;;;1.93;1.80;;;5.10;99.90;;;;;;5030921;28;20193;-74
2021/12/02 01:40:48;;;;;;;1.03;1.03;;;5.10;99.90;;;;;;5010161;28;20182;-75
2021/12/02 01:43:19;;;;;;;1.40;1.40;;;5.10;99.90;;;;;;5011480;28;20537;-75
2021/12/02 01:45:45;;;;;;;1.67;1.60;;;5.10;99.90;;;;;;5020613;28;20190;-74
2021/12/02 01:48:19;;;;;;;1.80;1.70;;;5.10;99.90;;;;;;4998898;28;20266;-74
2021/12/02 01:50:58;;;;;;;0.80;0.80;;;5.10;99.90;;;;;;5011676;28;20181;-74
2021/12/02 01:53:28;;;;;;;4.30;1.10;;;5.10;99.90;;;;;;5012976;28;20228;-75
2021/12/02 01:55:54;;;;;;;0.80;0.80;;;5.10;99.90;;;;;;5010989;28;20881;-75
2021/12/02 01:58:24;;;;;;;2.43;2.23;;;5.20;99.90;;;;;;5011396;28;20655;-74
2021/12/02 02:00:51;;;;;;;0.63;0.63;;;5.20;99.90;;;;;;5011191;28;20178;-75
2021/12/02 02:03:16;;;;;;;1.93;1.83;;;5.20;99.90;;;;;;5010431;28;20678;-74
2021/12/02 02:05:42;;;;;;;3.97;2.10;;;5.20;99.90;;;;;;5011136;28;20269;-74
2021/12/02 02:08:16;;;;;;;0.70;0.70;;;5.20;99.90;;;;;;4996043;28;20178;-74
2021/12/02 02:10:43;;;;;;;1.27;1.27;;;5.20;99.90;;;;;;5015202;28;20574;-75
2021/12/02 02:13:11;;;;;;;3.23;2.47;;;5.20;99.90;;;;;;5021816;28;20209;-74
2021/12/02 02:15:38;;;;;;;1.20;1.17;;;5.20;99.90;;;;;;5021930;28;20174;-74
2021/12/02 02:20:56;;;;;;;1.40;1.30;;;5.20;99.90;;;;;;5014477;28;20178;-74
2021/12/02 02:23:24;;;;;;;3.97;3.03;;;5.20;99.90;;;;;;5014786;28;20632;-74
2021/12/02 02:25:50;;;;;;;1.17;1.13;;;5.20;99.90;;;;;;5014477;28;20189;-72
2021/12/02 02:28:15;;;;;;;3.40;2.47;;;5.20;99.90;;;;;;5014811;28;20179;-73
2021/12/02 02:30:41;;;;;;;1.07;1.07;;;5.20;99.90;;;;;;4997136;28;20204;-74
2021/12/02 02:33:11;;;;;;;1.50;1.33;;;5.20;99.90;;;;;;5014568;28;20667;-74
2021/12/02 02:35:37;;;;;;;0.57;0.57;;;5.10;99.90;;;;;;4996935;28;20209;-73
2021/12/02 02:38:03;;;;;;;2.87;1.67;;;5.20;99.90;;;;;;5014359;28;20213;-74
2021/12/02 02:40:30;;;;;;;0.17;0.17;;;5.10;99.90;;;;;;5014451;28;20175;-73
2021/12/02 02:42:59;;;;;;;0.90;0.90;;;5.10;99.90;;;;;;5014731;28;20202;-73
2021/12/02 02:45:25;;;;;;;0.23;0.23;;;5.00;99.90;;;;;;5021431;28;20208;-73
2021/12/02 02:47:51;;;;;;;0.00;0.00;;;5.00;99.90;;;;;;5022072;28;20197;-75
2021/12/02 02:50:17;;;;;;;0.30;0.30;;;4.90;99.90;;;;;;5014476;28;20182;-73
2021/12/02 02:52:44;;;;;;;0.30;0.30;;;4.90;99.90;;;;;;5016762;28;20596;-73
2021/12/02 02:55:14;;;;;;;0.20;0.20;;;4.90;99.90;;;;;;4996615;28;20182;-74
2021/12/02 02:58:05;;;;;;;3.20;1.80;;;4.90;99.90;;;;;;5014151;28;20217;-74
2021/12/02 03:00:34;;;;;;;0.53;0.53;;;4.90;99.90;;;;;;5014373;28;20232;-74
2021/12/02 03:05:35;;;;;;;0.40;0.40;;;4.90;99.90;;;;;;5014012;28;20590;-73
2021/12/02 03:08:12;;;;;;;0.17;0.17;;;4.90;99.90;;;;;;5013771;28;20253;-74
2021/12/02 03:18:28;;;;;;;0.63;0.63;;;4.80;99.90;;;;;;5013771;28;20184;-75
2021/12/02 03:20:55;;;;;;;0.20;0.20;;;4.80;99.90;;;;;;5013797;28;20186;-74
2021/12/02 03:23:21;;;;;;;0.63;0.63;;;4.70;99.90;;;;;;5013743;28;20233;-75
2021/12/02 03:25:47;;;;;;;8.00;1.13;;;4.80;99.90;;;;;;5013278;28;20181;-74
2021/12/02 03:28:13;;;;;;;0.53;0.53;;;4.80;99.90;;;;;;5013972;28;20208;-74
2021/12/02 03:30:38;;;;;;;0.67;0.67;;;4.80;99.90;;;;;;5013603;28;20183;-74
2021/12/02 03:33:04;;;;;;;0.63;0.63;;;4.80;99.90;;;;;;4995974;28;20277;-74
2021/12/02 03:35:30;;;;;;;1.60;1.50;;;4.70;99.90;;;;;;5013644;28;20188;-74
2021/12/02 03:37:56;;;;;;;0.20;0.20;;;4.70;99.90;;;;;;5013226;28;20290;-75
2021/12/02 03:40:22;;;;;;;1.17;0.97;;;4.70;99.90;;;;;;5013462;28;20345;-75
2021/12/02 03:42:51;;;;;;;1.47;1.37;;;4.70;99.90;;;;;;5012142;28;20212;-74
2021/12/02 03:45:17;;;;;;;0.90;0.90;;;4.70;99.90;;;;;;5017892;28;20203;-75
2021/12/02 03:47:43;;;;;;;0.03;0.03;;;4.70;99.90;;;;;;5032972;28;20697;-75
2021/12/02 03:50:09;;;;;;;2.50;1.90;;;4.70;99.90;;;;;;5033097;28;20272;-74
2021/12/02 03:52:35;;;;;;;0.30;0.30;;;4.70;99.90;;;;;;5023905;28;20218;-74
2021/12/02 03:55:01;;;;;;;0.87;0.87;;;4.70;99.90;;;;;;5013047;28;20240;-74
2021/12/02 03:57:31;;;;;;;0.20;0.20;;;4.70;99.90;;;;;;5012924;28;20241;-73
2021/12/02 03:59:56;;;;;;;1.57;1.47;;;4.70;99.90;;;;;;5012963;28;20174;-74
2021/12/02 04:02:22;;;;;;;0.60;0.50;;;4.70;99.90;;;;;;5013196;28;20212;-73
2021/12/02 04:04:48;;;;;;;26.60;2.77;;;4.70;99.90;;;;;;5013033;28;20178;-74
2021/12/02 04:07:16;;;;;;;1.83;1.73;;;4.60;99.90;;;;;;5012928;28;20193;-74
2021/12/02 04:09:44;;;;;;;0.10;0.10;;;4.60;99.90;;;;;;4995295;28;20190;-73
2021/12/02 04:12:30;;;;;;;0.20;0.17;;;4.50;99.90;;;;;;5012266;28;20646;-73
2021/12/02 04:17:29;;;;;;;1.03;1.03;;;4.50;99.90;;;;;;5012216;28;20292;-74
2021/12/02 04:19:55;;;;;;;0.10;0.10;;;4.60;99.90;;;;;;5012800;28;20253;-74
2021/12/02 04:22:21;;;;;;;1.20;0.87;;;4.60;99.90;;;;;;4995119;28;20186;-74
2021/12/02 04:24:46;;;;;;;0.27;0.27;;;4.50;99.90;;;;;;5012729;28;20191;-74
2021/12/02 04:27:12;;;;;;;0.13;0.13;;;4.50;99.90;;;;;;4994782;28;20190;-74
2021/12/02 04:29:37;;;;;;;0.13;0.13;;;4.50;99.90;;;;;;5011977;28;20189;-74
2021/12/02 04:32:04;;;;;;;0.43;0.43;;;4.60;99.90;;;;;;5012306;28;20581;-74
2021/12/02 04:34:29;;;;;;;0.27;0.27;;;4.50;99.90;;;;;;5012976;28;20190;-74
2021/12/02 04:36:55;;;;;;;0.17;0.17;;;4.60;99.90;;;;;;5012439;28;20214;-74
2021/12/02 04:39:20;;;;;;;0.33;0.33;;;4.50;99.90;;;;;;5012550;28;20196;-74
2021/12/02 04:41:46;;;;;;;1.67;1.57;;;4.60;99.90;;;;;;5012476;28;20188;-75
2021/12/02 04:44:13;;;;;;;0.77;0.77;;;4.50;99.90;;;;;;5012484;28;20212;-74
2021/12/02 04:46:39;;;;;;;0.30;0.30;;;4.50;99.90;;;;;;5026981;28;20181;-75
2021/12/02 04:49:05;;;;;;;0.30;0.30;;;4.50;99.90;;;;;;5012596;28;20186;-75
2021/12/02 04:51:31;;;;;;;2.77;2.53;;;4.50;99.90;;;;;;5014692;28;20184;-75
2021/12/02 04:53:56;;;;;;;0.03;0.03;;;4.50;99.90;;;;;;5012096;28;20229;-74
2021/12/02 04:56:22;;;;;;;0.53;0.53;;;4.50;99.90;;;;;;5012563;28;20213;-75
2021/12/02 04:58:47;;;;;;;0.20;0.20;;;4.50;99.90;;;;;;5012090;28;20273;-75
2021/12/02 05:01:13;;;;;;;0.57;0.57;;;4.40;99.90;;;;;;5012041;28;20179;-74
2021/12/02 05:03:39;;;;;;;0.40;0.40;;;4.30;99.90;;;;;;5011991;28;20236;-73
2021/12/02 05:06:04;;;;;;;0.10;0.10;;;4.30;99.90;;;;;;4994118;28;20233;-74
2021/12/02 05:08:30;;;;;;;0.00;0.00;;;4.30;99.90;;;;;;5012124;28;20193;-73
2021/12/02 05:10:55;;;;;;;0.20;0.20;;;4.30;99.90;;;;;;5010739;28;20195;-75
2021/12/02 05:13:21;;;;;;;0.17;0.17;;;4.30;99.90;;;;;;5011794;28;20198;-74
2021/12/02 05:15:47;;;;;;;0.10;0.10;;;4.20;99.90;;;;;;5011150;28;20532;-74
2021/12/02 05:18:12;;;;;;;0.27;0.27;;;4.30;99.90;;;;;;5012002;28;20181;-75
2021/12/02 05:20:38;;;;;;;0.40;0.40;;;4.20;99.90;;;;;;5011790;28;20204;-74
2021/12/02 05:23:03;;;;;;;0.00;0.00;;;4.20;99.90;;;;;;5011738;28;20199;-74
2021/12/02 05:25:29;;;;;;;0.20;0.20;;;4.20;99.90;;;;;;5011628;28;20208;-74
2021/12/02 05:27:54;;;;;;;0.00;0.00;;;4.20;99.90;;;;;;5011396;28;20679;-74
2021/12/02 05:30:20;;;;;;;0.73;0.73;;;4.20;99.90;;;;;;5011547;28;20190;-74
2021/12/02 05:32:46;;;;;;;0.10;0.10;;;4.20;99.90;;;;;;5011711;28;20336;-73
2021/12/02 05:35:12;;;;;;;0.20;0.20;;;4.20;99.90;;;;;;4993967;28;20319;-74
2021/12/02 05:37:37;;;;;;;0.00;0.00;;;4.20;99.90;;;;;;5011296;28;20291;-74
2021/12/02 05:40:03;;;;;;;0.53;0.53;;;4.20;99.90;;;;;;5011440;28;20254;-74
2021/12/02 05:42:29;;;;;;;0.00;0.00;;;4.20;99.90;;;;;;5011335;28;20706;-74
2021/12/02 05:44:54;;;;;;;0.10;0.10;;;4.20;99.90;;;;;;5014277;28;20207;-74
2021/12/02 05:47:21;;;;;;;0.57;0.43;;;4.20;99.90;;;;;;5023732;28;20689;-74
2021/12/02 05:49:46;;;;;;;0.20;0.20;;;4.20;99.90;;;;;;5011403;28;20185;-74
2021/12/02 05:52:12;;;;;;;0.00;0.00;;;4.20;99.90;;;;;;5013915;28;20185;-74
2021/12/02 05:54:38;;;;;;;0.27;0.27;;;4.20;99.90;;;;;;5012621;28;20182;-74
2021/12/02 05:57:03;;;;;;;0.40;0.40;;;4.20;99.90;;;;;;5010858;28;20251;-74
2021/12/02 05:59:29;;;;;;;0.10;0.10;;;4.20;99.90;;;;;;5011391;28;20184;-74
2021/12/02 06:01:55;;;;;;;0.40;0.40;;;4.20;99.90;;;;;;5011346;28;20216;-74
2021/12/02 06:04:20;;;;;;;0.10;0.10;;;4.10;99.90;;;;;;5011271;28;20228;-73
2021/12/02 06:06:46;;;;;;;0.10;0.10;;;4.00;99.90;;;;;;5011027;28;20547;-73
2021/12/02 06:09:11;;;;;;;1.23;1.13;;;3.90;99.90;;;;;;5011257;28;20723;-74
2021/12/02 06:11:37;;;;;;;0.00;0.00;;;3.80;99.90;;;;;;5011115;28;20189;-73
2021/12/02 06:14:03;;;;;;;0.20;0.20;;;3.80;99.90;;;;;;4993569;28;20213;-74
2021/12/02 06:16:29;;;;;;;1.07;1.07;;;3.80;99.90;;;;;;5010728;28;20821;-74
2021/12/02 06:18:54;;;;;;;0.10;0.10;;;3.80;99.90;;;;;;5010934;28;20231;-74
2021/12/02 06:21:20;;;;;;;0.20;0.20;;;3.80;99.90;;;;;;5011297;28;20209;-74
2021/12/02 06:23:46;;;;;;;0.10;0.10;;;3.80;99.90;;;;;;5010894;28;20198;-74
2021/12/02 06:26:11;;;;;;;0.47;0.47;;;3.80;99.90;;;;;;5011049;28;20189;-73
2021/12/02 06:28:37;;;;;;;0.07;0.07;;;3.80;99.90;;;;;;5011013;28;20189;-74
2021/12/02 06:31:03;;;;;;;0.00;0.00;;;3.80;99.90;;;;;;5011185;28;20220;-73
2021/12/02 06:33:32;;;;;;;0.50;0.50;;;3.80;99.90;;;;;;5010911;28;20210;-74
2021/12/02 06:35:58;;;;;;;0.77;0.77;;;3.80;99.90;;;;;;4993123;28;20276;-74
2021/12/02 06:38:24;;;;;;;0.30;0.30;;;3.80;99.90;;;;;;5010785;28;20192;-74
2021/12/02 06:40:50;;;;;;;0.50;0.50;;;3.80;99.90;;;;;;4993478;28;20184;-74
2021/12/02 06:43:16;;;;;;;0.00;0.00;;;3.80;99.90;;;;;;5010995;28;20260;-74
2021/12/02 06:45:43;;;;;;;0.33;0.30;;;3.80;99.90;;;;;;5020055;28;20181;-74
2021/12/02 06:48:08;;;;;;;0.57;0.57;;;3.80;99.90;;;;;;5016591;28;20197;-74
2021/12/02 06:50:36;;;;;;;0.70;0.70;;;3.80;99.90;;;;;;5010923;28;20186;-74
2021/12/02 06:53:03;;;;;;;0.93;0.93;;;3.80;99.90;;;;;;5010355;28;20252;-74
2021/12/02 06:55:28;;;;;;;1.57;0.67;;;3.80;99.90;;;;;;5034290;28;20243;-74
2021/12/02 06:57:54;;;;;;;0.83;0.83;;;3.80;99.90;;;;;;5016054;28;20215;-74
2021/12/02 07:00:21;;;;;;;0.27;0.27;;;3.80;99.90;;;;;;5033944;28;20185;-73
2021/12/02 07:02:48;;;;;;;0.13;0.13;;;3.80;99.90;;;;;;5033949;28;20233;-73
2021/12/02 07:05:15;;;;;;;0.27;0.27;;;3.80;99.90;;;;;;5033992;28;20176;-73
2021/12/02 07:07:41;;;;;;;0.10;0.10;;;3.80;99.90;;;;;;5033488;28;20809;-73
2021/12/02 07:10:09;;;;;;;0.00;0.00;;;3.80;99.90;;;;;;5033869;28;20183;-73
2021/12/02 07:12:38;;;;;;;0.00;0.00;;;3.80;99.90;;;;;;5015993;28;20208;-73
2021/12/02 07:15:08;;;;;;;0.30;0.30;;;3.80;99.90;;;;;;5033910;28;20246;-73
2021/12/02 07:17:34;;;;;;;0.20;0.20;;;3.80;99.90;;;;;;5032603;28;20204;-73
2021/12/02 07:20:00;;;;;;;0.90;0.90;;;3.80;99.90;;;;;;5033977;28;20204;-74
2021/12/02 07:22:27;;;;;;;1.23;1.23;;;3.80;99.90;;;;;;5033460;28;20242;-74
2021/12/02 07:24:52;;;;;;;0.10;0.10;;;3.70;99.90;;;;;;5033692;28;20180;-73
2021/12/02 07:27:18;;;;;;;0.67;0.67;;;3.70;99.90;;;;;;5033319;28;20188;-74
2021/12/02 07:29:43;;;;;;;2.43;0.67;;;3.60;99.90;;;;;;5034236;28;20247;-74
2021/12/02 07:32:11;;;;;;;0.00;0.00;;;3.60;99.90;;;;;;5034680;28;20196;-74
2021/12/02 07:34:38;;;;;;;0.10;0.10;;;3.50;99.90;;;;;;5033700;28;20185;-73
2021/12/02 07:37:04;;;;;;;0.20;0.20;;;3.50;99.90;;;;;;5032959;28;20572;-73
2021/12/02 07:39:29;;;;;;;0.20;0.20;;;3.40;99.90;;;;;;5033632;28;20181;-73
2021/12/02 07:41:55;;;;;;;0.00;0.00;;;3.40;99.90;;;;;;5033412;28;20183;-73
2021/12/02 07:44:21;;;;;;;0.00;0.00;;;3.40;99.90;;;;;;5033308;28;20201;-73
2021/12/02 07:46:47;;;;;;;0.00;0.00;;;3.40;99.90;;;;;;5032740;28;20261;-73
2021/12/02 07:49:13;;;;;;;0.63;0.63;;;3.40;99.90;;;;;;5023884;28;20224;-73
2021/12/02 07:51:43;;;;;;;0.13;0.13;;;3.40;99.90;;;;;;5015130;28;20617;-73
2021/12/02 07:54:11;;;;;;;0.10;0.10;;;3.30;99.90;;;;;;5013210;28;20243;-73
2021/12/02 07:56:36;;;;;;;0.50;0.50;;;3.30;99.90;;;;;;5030070;28;20212;-73
2021/12/02 07:59:03;;;;;;;0.13;0.13;;;3.30;99.90;;;;;;5021757;28;20196;-73
2021/12/02 08:01:29;;;;;;;0.30;0.30;;;3.30;99.90;;;;;;5028729;28;20275;-73
2021/12/02 08:03:54;;;;;;;0.43;0.43;;;3.30;99.90;;;;;;5014560;28;20216;-73
2021/12/02 08:06:20;;;;;;;0.50;0.40;;;3.30;99.90;;;;;;5032365;28;20181;-73
2021/12/02 08:08:47;;;;;;;2.03;1.93;;;3.20;99.90;;;;;;5032956;28;20600;-73
2021/12/02 08:11:13;;;;;;;0.00;0.00;;;3.20;99.90;;;;;;5032820;28;20187;-72
2021/12/02 08:13:39;;;;;;;1.97;1.33;;;3.30;99.90;;;;;;5032567;28;20204;-73
2021/12/02 08:16:06;;;;;;;0.10;0.10;;;3.30;99.90;;;;;;5032243;28;20206;-74
2021/12/02 08:18:33;;;;;;;0.23;0.13;;;3.30;99.90;;;;;;5032708;28;20186;-73
2021/12/02 08:20:59;;;;;;;0.00;0.00;;;3.30;99.90;;;;;;5032595;28;20256;-73
2021/12/02 08:23:25;;;;;;;1.53;1.37;;;3.30;99.90;;;;;;5031942;28;20201;-70
2021/12/02 08:25:53;;;;;;;0.20;0.20;;;3.30;99.90;;;;;;5004016;28;20181;-69
2021/12/02 08:28:18;;;;;;;0.20;0.20;;;3.30;99.90;;;;;;5014725;28;20212;-70
2021/12/02 08:30:44;;;;;;;1.50;0.47;;;3.30;99.90;;;;;;5012604;28;20186;-71
2021/12/02 08:33:12;;;;;;;0.30;0.30;;;3.30;99.90;;;;;;4995162;28;20204;-70
2021/12/02 08:35:38;;;;;;;2.00;1.90;;;3.30;99.90;;;;;;5012251;28;20176;-70
2021/12/02 08:38:12;;;;;;;0.30;0.30;;;3.40;99.90;;;;;;5012319;28;20204;-70
2021/12/02 08:40:40;;;;;;;0.60;0.60;;;3.40;99.90;;;;;;5011822;28;20207;-70
2021/12/02 08:43:11;;;;;;;0.87;0.87;;;3.30;99.90;;;;;;5012454;28;20200;-70
2021/12/02 08:45:39;;;;;;;0.50;0.50;;;3.40;99.90;;;;;;5020921;28;20280;-70
2021/12/02 08:48:05;;;;;;;0.00;0.00;;;3.40;99.90;;;;;;5014273;28;20191;-70
2021/12/02 08:50:32;;;;;;;0.73;0.73;;;3.30;99.90;;;;;;5031373;28;20180;-70
2021/12/02 08:52:58;;;;;;;0.10;0.10;;;3.30;99.90;;;;;;5028648;28;20628;-70
2021/12/02 08:55:25;;;;;;;0.17;0.17;;;3.30;99.90;;;;;;5027456;28;20191;-71
2021/12/02 08:57:52;;;;;;;0.10;0.10;;;3.30;99.90;;;;;;5031135;28;20205;-70
2021/12/02 09:00:20;;;;;;;0.00;0.00;;;3.30;99.90;;;;;;5024019;28;20671;-70
2021/12/02 09:02:47;;;;;;;0.30;0.30;;;3.30;99.90;;;;;;5011831;28;20659;-70
2021/12/02 09:05:13;;;;;;;0.33;0.20;;;3.20;99.90;;;;;;5012174;28;20190;-70
2021/12/02 09:07:39;;;;;;;0.60;0.60;;;3.20;99.90;;;;;;5012328;28;20188;-70
2021/12/02 09:10:07;;;;;;;0.00;0.00;;;3.40;99.90;;;;;;5005788;28;20686;-69
2021/12/02 09:12:33;;;;;;;0.63;0.63;;;3.40;99.90;;;;;;4994073;28;20216;-70
2021/12/02 09:14:58;;;;;;;0.10;0.10;;;3.50;99.90;;;;;;4994356;28;20555;-69
2021/12/02 09:17:24;;;;;;;0.97;0.97;;;3.50;99.90;;;;;;5021879;28;20211;-69
2021/12/02 09:19:50;;;;;;;0.00;0.00;;;3.50;99.90;;;;;;5025066;28;20184;-69
2021/12/02 09:22:16;;;;;;;0.70;0.70;;;3.40;99.90;;;;;;5031114;28;20192;-69
2021/12/02 09:24:41;;;;;;;1.83;1.73;;;3.50;99.90;;;;;;5031188;28;20185;-69
2021/12/02 09:27:07;;;;;;;0.47;0.47;;;3.40;99.90;;;;;;5013017;28;20228;-69
2021/12/02 09:29:33;;;;;;;0.10;0.10;;;3.40;99.90;;;;;;5013263;28;20196;-69
2021/12/02 09:31:59;;;;;;;2.53;1.43;;;3.60;99.90;;;;;;5013425;28;20183;-70
2021/12/02 09:34:26;;;;;;;0.23;0.23;;;3.90;99.90;;;;;;5031148;28;20200;-69
2021/12/02 09:36:52;;;;;;;0.13;0.10;;;4.00;99.90;;;;;;5013242;28;20212;-69
2021/12/02 09:39:18;;;;;;;0.97;0.97;;;4.10;99.90;;;;;;5030865;28;20600;-69
2021/12/02 09:41:47;;;;;;;0.83;0.83;;;4.30;99.90;;;;;;5031137;28;20192;-70
2021/12/02 09:44:14;;;;;;;0.00;0.00;;;4.40;99.90;;;;;;5031005;28;20197;-69
2021/12/02 09:46:41;;;;;;;1.40;0.97;;;4.50;99.90;;;;;;5010257;28;20596;-69
2021/12/02 09:49:09;;;;;;;0.10;0.10;;;4.40;99.90;;;;;;5010980;28;20177;-69
2021/12/02 09:51:46;;;;;;;0.10;0.10;;;4.20;99.90;;;;;;5012676;28;20285;-69
2021/12/02 09:54:17;;;;;;;0.20;0.20;;;4.10;99.90;;;;;;5022792;28;20224;-69
2021/12/02 09:56:46;;;;;;;0.87;0.87;;;3.80;99.90;;;;;;5030552;28;20201;-69
2021/12/02 09:59:24;;;;;;;0.43;0.43;;;3.70;99.90;;;;;;5026852;28;20176;-69
2021/12/02 10:01:56;;;;;;;0.57;0.57;;;3.70;99.90;;;;;;5011574;28;20547;-69
2021/12/02 10:04:22;;;;;;;1.60;1.60;;;3.60;99.90;;;;;;5011577;28;20257;-70
2021/12/02 10:06:49;;;;;;;0.00;0.00;;;3.50;99.90;;;;;;5010732;28;20188;-69
2021/12/02 10:09:23;;;;;;;0.10;0.10;;;3.70;99.90;;;;;;5011111;28;20562;-69
2021/12/02 10:11:55;;;;;;;0.20;0.20;;;3.90;99.90;;;;;;4993259;28;20552;-69
2021/12/02 10:14:37;;;;;;;0.20;0.20;;;4.10;99.90;;;;;;5011152;28;20201;-69
2021/12/02 10:17:13;;;;;;;0.37;0.37;;;4.30;99.90;;;;;;5011000;28;20209;-70
2021/12/02 10:20:02;;;;;;;0.10;0.10;;;4.30;99.90;;;;;;5018273;28;20530;-69
2021/12/02 10:22:28;;;;;;;0.00;0.00;;;4.10;99.90;;;;;;5012001;28;20263;-70
2021/12/02 10:24:53;;;;;;;0.50;0.50;;;4.20;99.90;;;;;;5029050;28;20194;-69
2021/12/02 10:27:19;;;;;;;0.30;0.30;;;4.30;99.90;;;;;;5023660;28;20276;-69
2021/12/02 10:29:48;;;;;;;0.03;0.03;;;4.30;99.90;;;;;;5013617;28;20189;-69
2021/12/02 10:32:16;;;;;;;0.10;0.10;;;4.20;99.90;;;;;;5014869;28;20228;-70
2021/12/02 10:34:56;;;;;;;0.00;0.00;;;4.20;99.90;;;;;;5015643;28;20214;-71
2021/12/02 10:37:28;;;;;;;0.00;0.00;;;4.30;99.90;;;;;;5014626;28;20217;-70
2021/12/02 10:40:00;;;;;;;0.00;0.00;;;4.50;99.90;;;;;;5015138;28;20178;-70
2021/12/02 10:42:27;;;;;;;0.40;0.40;;;4.40;99.90;;;;;;5014731;28;20236;-70
2021/12/02 10:44:54;;;;;;;1.43;0.60;;;4.60;99.90;;;;;;5017189;28;20648;-70
2021/12/02 10:47:22;;;;;;;0.10;0.10;;;4.90;99.90;;;;;;5027269;28;20193;-71
2021/12/02 10:49:50;;;;;;;0.00;0.00;;;4.90;99.90;;;;;;5013175;28;20186;-70
2021/12/02 10:52:21;;;;;;;0.30;0.30;;;5.20;99.90;;;;;;5006586;28;20189;-72
2021/12/02 10:54:51;;;;;;;0.10;0.10;;;5.60;99.90;;;;;;5029537;28;20189;-70
2021/12/02 10:57:24;;;;;;;0.00;0.00;;;5.90;99.90;;;;;;5034495;28;20244;-70
2021/12/02 10:59:51;;;;;;;0.10;0.10;;;6.10;99.90;;;;;;5012943;28;20187;-70
2021/12/02 11:02:19;;;;;;;0.10;0.10;;;6.30;99.90;;;;;;5014313;28;20721;-70
2021/12/02 11:04:48;;;;;;;0.40;0.40;;;6.20;99.90;;;;;;5014097;28;20638;-70
2021/12/02 11:07:24;;;;;;;0.00;0.00;;;6.40;99.90;;;;;;5014355;28;20655;-70
2021/12/02 11:09:52;;;;;;;0.47;0.47;;;6.50;99.90;;;;;;5014753;28;20312;-72
2021/12/02 11:12:21;;;;;;;0.00;0.00;;;6.00;99.90;;;;;;4997227;28;20194;-70
2021/12/02 11:15:08;;;;;;;0.00;0.00;;;6.40;99.90;;;;;;5014094;28;20258;-69
2021/12/02 11:17:38;;;;;;;0.10;0.10;;;5.80;99.90;;;;;;5013616;28;20213;-70
2021/12/02 11:20:07;;;;;;;0.10;0.10;;;5.40;99.90;;;;;;5014484;28;20261;-70
2021/12/02 11:22:33;;;;;;;3.57;1.07;;;5.00;99.90;;;;;;4996444;28;20202;-70
2021/12/02 11:25:00;;;;;;;0.40;0.30;;;5.40;99.90;;;;;;4996162;28;20209;-69
2021/12/02 11:27:39;;;;;;;0.63;0.63;;;5.00;99.90;;;;;;5013478;28;20182;-69
2021/12/02 11:30:09;;;;;;;0.13;0.13;;;5.20;99.90;;;;;;5014457;28;20598;-70
2021/12/02 11:32:44;;;;;;;0.20;0.20;;;5.10;99.90;;;;;;4996470;28;20214;-70
2021/12/02 11:35:15;;;;;;;0.00;0.00;;;5.30;99.90;;;;;;4997285;28;20193;-70
2021/12/02 11:37:43;;;;;;;0.10;0.10;;;5.30;99.90;;;;;;5013421;28;20210;-70
2021/12/02 11:40:17;;;;;;;0.10;0.10;;;5.30;99.90;;;;;;5012911;28;20184;-69
2021/12/02 11:42:44;;;;;;;0.10;0.10;;;4.90;99.90;;;;;;5013383;28;20260;-70
2021/12/02 11:45:11;;;;;;;1.37;0.50;;;4.90;99.90;;;;;;5018380;28;20256;-70
2021/12/02 11:47:38;;;;;;;0.43;0.30;;;4.70;99.90;;;;;;5023942;28;20186;-70
2021/12/02 11:50:07;;;;;;;0.10;0.10;;;5.00;99.90;;;;;;5013573;28;20219;-70
2021/12/02 11:52:38;;;;;;;0.10;0.10;;;4.90;99.90;;;;;;5017718;28;20226;-70
2021/12/02 11:55:16;;;;;;;0.87;0.33;;;5.00;99.90;;;;;;5030674;28;20186;-70
2021/12/02 11:57:43;;;;;;;2.53;1.20;;;4.80;99.90;;;;;;5033664;28;20213;-69
2021/12/02 12:00:11;;;;;;;0.10;0.10;;;4.70;99.90;;;;;;5021155;28;20548;-70
2021/12/02 12:02:45;;;;;;;0.20;0.20;;;4.90;99.90;;;;;;5013017;28;20660;-70
2021/12/02 12:05:12;;;;;;;0.00;0.00;;;5.70;99.90;;;;;;5012996;28;20189;-70
2021/12/02 12:07:46;;;;;;;0.10;0.10;;;5.90;99.90;;;;;;5012709;28;20262;-70
2021/12/02 12:10:20;;;;;;;2.00;1.53;;;6.90;99.90;;;;;;5013022;28;20558;-69
2021/12/02 12:12:46;;;;;;;0.30;0.30;;;7.30;99.90;;;;;;5012734;28;20635;-70
2021/12/02 12:15:32;;;;;;;0.30;0.30;;;5.70;99.90;;;;;;5012968;28;20265;-70
2021/12/02 12:17:59;;;;;;;0.17;0.17;;;5.00;99.90;;;;;;5012432;28;20206;-70
2021/12/02 12:20:49;;;;;;;0.63;0.40;;;4.80;99.90;;;;;;5012802;28;20182;-70
2021/12/02 12:23:47;;;;;;;0.67;0.67;;;4.40;99.90;;;;;;5012801;28;20565;-69
2021/12/02 12:26:19;;;;;;;0.10;0.10;;;4.50;99.90;;;;;;5001689;28;20201;-70
2021/12/02 12:29:09;;;;;;;0.10;0.10;;;4.50;99.90;;;;;;5012445;28;20735;-70
2021/12/02 12:32:03;;;;;;;0.40;0.40;;;4.70;99.90;;;;;;5004801;28;20256;-70
2021/12/02 12:34:34;;;;;;;0.00;0.00;;;4.90;99.90;;;;;;5012539;28;20292;-69
2021/12/02 12:40:22;;;;;;;0.30;0.30;;;5.60;99.90;;;;;;5008636;28;20189;-69
2021/12/02 12:42:57;;;;;;;0.10;0.10;;;5.10;99.90;;;;;;5009674;28;20289;-70
2021/12/02 12:45:26;;;;;;;0.17;0.17;;;4.90;99.90;;;;;;5017822;28;20180;-70
2021/12/02 12:47:55;;;;;;;0.03;0.03;;;4.90;99.90;;;;;;5019901;28;20227;-69
2021/12/02 12:50:26;;;;;;;0.20;0.20;;;4.80;99.90;;;;;;5011981;28;20214;-69
2021/12/02 12:52:59;;;;;;;0.10;0.10;;;4.60;99.90;;;;;;5017453;28;20213;-70
2021/12/02 12:55:24;;;;;;;0.93;0.17;;;4.60;99.90;;;;;;5031735;28;20593;-70
2021/12/02 12:58:11;;;;;;;0.40;0.23;;;4.50;99.90;;;;;;5017571;28;20206;-70
2021/12/02 13:00:39;;;;;;;0.10;0.10;;;4.60;99.90;;;;;;5026952;28;20177;-69
2021/12/02 13:03:11;;;;;;;0.40;0.40;;;4.60;99.90;;;;;;5029217;28;20580;-70
2021/12/02 13:06:00;;;;;;;0.10;0.10;;;4.60;99.90;;;;;;5011465;28;20561;-70
2021/12/02 13:08:31;;;;;;;0.83;0.80;;;4.30;99.90;;;;;;5029885;28;20249;-69
2021/12/02 13:11:02;;;;;;;1.53;1.43;;;4.30;99.90;;;;;;5031570;28;20193;-69
2021/12/02 13:13:30;;;;;;;0.20;0.20;;;4.30;99.90;;;;;;5031435;28;20193;-69
2021/12/02 13:16:08;;;;;;;0.53;0.53;;;4.30;99.90;;;;;;5031169;28;20669;-70
2021/12/02 13:18:38;;;;;;;0.10;0.10;;;4.30;99.90;;;;;;5031526;28;20196;-70
2021/12/02 13:21:32;;;;;;;0.37;0.37;;;4.20;99.90;;;;;;5030287;28;20598;-69
2021/12/02 13:24:03;;;;;;;0.20;0.17;;;4.20;99.90;;;;;;5031114;28;20208;-69
2021/12/02 13:26:34;;;;;;;0.27;0.27;;;4.30;99.90;;;;;;5013377;28;20188;-69